createdAt,value
2023-04-27T00:00:41.500Z,102111.72
2023-04-27T00:03:10.171Z,102106.25
2023-04-27T00:05:39.818Z,102103.47
2023-04-27T00:08:08.881Z,102112.06
2023-04-27T00:10:38.751Z,102112.88
2023-04-27T00:13:07.251Z,102109.41
2023-04-27T00:15:35.618Z,102114.56
2023-04-27T00:18:04.262Z,102119.03
2023-04-27T00:20:33.960Z,102120.00
2023-04-27T00:23:02.540Z,102122.91
2023-04-27T00:25:30.950Z,102120.78
2023-04-27T00:28:00.712Z,102122.88
2023-04-27T00:30:29.110Z,102127.63
2023-04-27T00:33:00.558Z,102126.13
2023-04-27T00:35:28.999Z,102130.75
2023-04-27T00:37:57.876Z,102127.66
2023-04-27T00:40:26.608Z,102131.53
2023-04-27T00:42:55.123Z,102120.63
2023-04-27T00:45:27.395Z,102115.78
2023-04-27T00:47:56.209Z,102119.56
2023-04-27T00:50:30.461Z,102131.22
2023-04-27T00:52:58.989Z,102125.41
2023-04-27T00:55:27.824Z,102136.97
2023-04-27T00:57:56.480Z,102133.72
2023-04-27T01:00:26.577Z,102134.03
2023-04-27T01:02:56.626Z,102131.63
2023-04-27T01:05:26.833Z,102138.72
2023-04-27T01:07:55.169Z,102126.00
2023-04-27T01:10:23.853Z,102131.44
2023-04-27T01:12:52.442Z,102129.06
2023-04-27T01:15:20.848Z,102120.66
2023-04-27T01:18:17.565Z,102120.00
2023-04-27T01:20:46.208Z,102119.16
2023-04-27T01:23:17.638Z,102117.41
2023-04-27T01:25:47.374Z,102119.72
2023-04-27T01:28:15.916Z,102112.47
2023-04-27T01:30:45.385Z,102112.84
2023-04-27T01:33:14.133Z,102111.44
2023-04-27T01:35:42.727Z,102111.84
2023-04-27T01:38:11.320Z,102114.81
2023-04-27T01:40:42.610Z,102111.78
2023-04-27T01:43:11.377Z,102114.03
2023-04-27T01:45:39.915Z,102124.84
2023-04-27T01:48:08.558Z,102120.09
2023-04-27T01:50:36.985Z,102125.72
2023-04-27T01:53:05.630Z,102121.94
2023-04-27T01:55:36.631Z,102118.13
2023-04-27T01:58:06.744Z,102126.50
2023-04-27T02:00:35.300Z,102124.34
2023-04-27T02:03:03.743Z,102121.34
2023-04-27T02:05:32.243Z,102128.00
2023-04-27T02:08:02.527Z,102136.44
2023-04-27T02:10:30.985Z,102127.53
2023-04-27T02:12:59.632Z,102132.56
2023-04-27T02:15:29.450Z,102135.72
2023-04-27T02:17:58.692Z,102137.28
2023-04-27T02:20:27.097Z,102137.09
2023-04-27T02:22:55.521Z,102137.84
2023-04-27T02:25:24.069Z,102141.25
2023-04-27T02:27:52.518Z,102140.19
2023-04-27T02:30:22.458Z,102138.25
2023-04-27T02:32:53.131Z,102137.03
2023-04-27T02:35:21.756Z,102135.00
2023-04-27T02:37:50.162Z,102129.59
2023-04-27T02:40:18.705Z,102129.25
2023-04-27T02:42:47.097Z,102129.91
2023-04-27T02:45:15.540Z,102135.66
2023-04-27T02:47:43.953Z,102124.16
2023-04-27T02:50:13.991Z,102126.50
2023-04-27T02:52:42.365Z,102132.22
2023-04-27T02:55:11.589Z,102127.78
2023-04-27T02:57:41.197Z,102130.25
2023-04-27T03:00:11.866Z,102136.16
2023-04-27T03:02:40.432Z,102139.38
2023-04-27T03:05:09.989Z,102132.97
2023-04-27T03:07:39.707Z,102132.00
2023-04-27T03:10:09.121Z,102123.19
2023-04-27T03:12:37.903Z,102124.66
2023-04-27T03:15:07.884Z,102127.88
2023-04-27T03:17:36.469Z,102120.91
2023-04-27T03:20:08.641Z,102119.91
2023-04-27T03:22:37.156Z,102118.97
2023-04-27T03:25:08.326Z,102126.63
2023-04-27T03:27:36.899Z,102128.16
2023-04-27T03:30:06.217Z,102116.81
2023-04-27T03:32:34.738Z,102116.66
2023-04-27T03:35:03.427Z,102115.78
2023-04-27T03:37:32.798Z,102116.66
2023-04-27T03:40:01.243Z,102117.47
2023-04-27T03:42:31.155Z,102119.00
2023-04-27T03:44:59.631Z,102114.53
2023-04-27T03:47:28.052Z,102123.09
2023-04-27T03:49:56.520Z,102115.31
2023-04-27T03:52:24.947Z,102125.59
2023-04-27T03:54:53.360Z,102122.09
2023-04-27T03:57:22.138Z,102131.66
2023-04-27T03:59:52.019Z,102132.53
2023-04-27T04:02:22.232Z,102124.69
2023-04-27T04:04:51.184Z,102125.34
2023-04-27T04:07:19.681Z,102121.69
2023-04-27T04:09:48.027Z,102130.16
2023-04-27T04:12:16.406Z,102140.50
2023-04-27T04:14:44.794Z,102134.50
2023-04-27T04:17:14.623Z,102136.31
2023-04-27T04:19:43.044Z,102130.25
2023-04-27T04:22:11.972Z,102138.06
2023-04-27T04:24:40.565Z,102131.50
2023-04-27T04:27:09.186Z,102130.22
2023-04-27T04:29:38.968Z,102123.78
2023-04-27T04:32:09.524Z,102133.84
2023-04-27T04:34:39.381Z,102141.22
2023-04-27T04:37:07.704Z,102140.69
2023-04-27T04:39:36.083Z,102136.50
2023-04-27T04:42:04.729Z,102134.78
2023-04-27T04:44:33.540Z,102142.59
2023-04-27T04:47:02.004Z,102146.19
2023-04-27T04:49:30.469Z,102143.69
2023-04-27T04:52:00.214Z,102148.13
2023-04-27T04:54:28.609Z,102144.75
2023-04-27T04:56:58.427Z,102145.88
2023-04-27T04:59:27.110Z,102149.72
2023-04-27T05:01:56.321Z,102145.75
2023-04-27T05:04:25.056Z,102146.25
2023-04-27T05:06:54.072Z,102141.56
2023-04-27T05:09:25.186Z,102142.06
2023-04-27T05:11:53.886Z,102149.50
2023-04-27T05:14:22.964Z,102147.41
2023-04-27T05:16:51.938Z,102148.69
2023-04-27T05:19:22.069Z,102149.16
2023-04-27T05:21:51.115Z,102156.47
2023-04-27T05:24:20.290Z,102157.91
2023-04-27T05:26:51.094Z,102160.13
2023-04-27T05:29:20.420Z,102165.00
2023-04-27T05:31:49.683Z,102167.22
2023-04-27T05:34:18.708Z,102163.44
2023-04-27T05:36:49.570Z,102170.88
2023-04-27T05:39:18.587Z,102173.28
2023-04-27T05:41:47.381Z,102172.88
2023-04-27T05:44:17.138Z,102177.84
2023-04-27T05:46:45.840Z,102174.94
2023-04-27T05:49:16.824Z,102176.44
2023-04-27T05:51:45.271Z,102174.47
2023-04-27T05:54:13.765Z,102163.75
2023-04-27T05:56:42.183Z,102157.44
2023-04-27T05:59:10.928Z,102158.00
2023-04-27T06:01:40.780Z,102157.75
2023-04-27T06:04:09.206Z,102150.47
2023-04-27T06:06:37.996Z,102151.91
2023-04-27T06:09:06.733Z,102149.81
2023-04-27T06:11:35.346Z,102157.28
2023-04-27T06:14:03.857Z,102151.69
2023-04-27T06:16:33.473Z,102154.78
2023-04-27T06:19:03.700Z,102161.50
2023-04-27T06:21:34.980Z,102149.00
2023-04-27T06:24:03.717Z,102156.47
2023-04-27T06:26:32.207Z,102156.03
2023-04-27T06:29:00.629Z,102144.34
2023-04-27T06:31:29.280Z,102148.31
2023-04-27T06:33:57.948Z,102147.06
2023-04-27T06:36:28.961Z,102146.69
2023-04-27T06:38:58.110Z,102142.84
2023-04-27T06:41:28.372Z,102146.84
2023-04-27T06:43:58.583Z,102158.59
2023-04-27T06:46:28.062Z,102150.31
2023-04-27T06:48:56.553Z,102153.28
2023-04-27T06:51:24.909Z,102152.81
2023-04-27T06:53:57.318Z,102150.75
2023-04-27T06:56:26.445Z,102148.50
2023-04-27T06:58:54.941Z,102148.81
2023-04-27T07:01:23.490Z,102145.66
2023-04-27T07:03:53.072Z,102149.50
2023-04-27T07:06:22.320Z,102144.56
2023-04-27T07:08:50.905Z,102144.94
2023-04-27T07:11:20.913Z,102143.53
2023-04-27T07:13:49.708Z,102140.28
2023-04-27T07:16:18.332Z,102136.25
2023-04-27T07:18:47.158Z,102144.41
2023-04-27T07:21:16.279Z,102147.41
2023-04-27T07:23:46.477Z,102143.34
2023-04-27T07:26:14.884Z,102144.53
2023-04-27T07:28:44.837Z,102151.03
2023-04-27T07:31:13.943Z,102137.44
2023-04-27T07:33:42.338Z,102142.88
2023-04-27T07:36:10.957Z,102136.19
2023-04-27T07:38:39.554Z,102139.84
2023-04-27T07:41:09.097Z,102136.56
2023-04-27T07:43:37.448Z,102144.66
2023-04-27T07:46:07.715Z,102137.06
2023-04-27T07:48:36.197Z,102144.34
2023-04-27T07:51:04.775Z,102142.81
2023-04-27T07:53:36.026Z,102134.28
2023-04-27T07:56:07.513Z,102131.06
2023-04-27T07:58:35.894Z,102132.97
2023-04-27T08:01:04.197Z,102134.81
2023-04-27T08:03:34.237Z,102137.69
2023-04-27T08:06:05.051Z,102130.03
2023-04-27T08:08:33.777Z,102129.38
2023-04-27T08:11:02.328Z,102140.97
2023-04-27T08:13:31.030Z,102141.25
2023-04-27T08:15:59.397Z,102145.84
2023-04-27T08:18:29.076Z,102150.34
2023-04-27T08:20:58.900Z,102141.75
2023-04-27T08:23:29.930Z,102142.84
2023-04-27T08:25:58.869Z,102148.22
2023-04-27T08:28:27.412Z,102147.44
2023-04-27T08:30:56.321Z,102145.78
2023-04-27T08:33:24.920Z,102142.41
2023-04-27T08:35:55.992Z,102149.50
2023-04-27T08:38:26.117Z,102151.25
2023-04-27T08:40:54.773Z,102155.72
2023-04-27T08:43:23.451Z,102153.09
2023-04-27T08:45:53.055Z,102160.09
2023-04-27T08:48:22.278Z,102159.16
2023-04-27T08:50:52.714Z,102155.72
2023-04-27T08:53:22.522Z,102152.34
2023-04-27T08:55:52.551Z,102153.38
2023-04-27T08:58:21.420Z,102156.16
2023-04-27T09:00:52.496Z,102146.66
2023-04-27T09:03:25.391Z,102156.63
2023-04-27T09:06:04.428Z,102154.28
2023-04-27T09:08:48.082Z,102145.72
2023-04-27T09:11:31.495Z,102140.75
2023-04-27T09:14:01.826Z,102143.63
2023-04-27T09:16:31.986Z,102151.56
2023-04-27T09:19:01.238Z,102135.81
2023-04-27T09:21:31.355Z,102142.22
2023-04-27T09:23:59.827Z,102144.97
2023-04-27T09:26:31.710Z,102131.88
2023-04-27T09:29:00.050Z,102131.09
2023-04-27T09:31:33.491Z,102123.22
2023-04-27T09:34:01.944Z,102134.72
2023-04-27T09:36:32.364Z,102125.16
2023-04-27T09:39:04.601Z,102130.44
2023-04-27T09:41:35.698Z,102126.03
2023-04-27T09:44:04.747Z,102124.28
2023-04-27T09:46:34.987Z,102128.75
2023-04-27T09:49:06.310Z,102126.16
2023-04-27T09:51:37.318Z,102133.19
2023-04-27T09:54:07.137Z,102134.97
2023-04-27T09:56:49.966Z,102144.66
2023-04-27T09:59:37.798Z,102134.06
2023-04-27T10:02:20.973Z,102134.94
2023-04-27T10:05:20.860Z,102142.00
2023-04-27T10:07:49.869Z,102136.66
2023-04-27T10:10:20.787Z,102136.66
2023-04-27T10:13:02.225Z,102135.78
2023-04-27T10:15:32.048Z,102135.81
2023-04-27T10:18:06.466Z,102131.41
2023-04-27T10:20:37.905Z,102134.06
2023-04-27T10:23:06.505Z,102119.06
2023-04-27T10:25:41.499Z,102121.72
2023-04-27T10:28:18.361Z,102123.50
2023-04-27T10:30:50.156Z,102119.09
2023-04-27T10:33:21.460Z,102131.44
2023-04-27T10:36:00.494Z,102127.94
2023-04-27T10:38:31.060Z,102122.63
2023-04-27T10:41:03.392Z,102121.75
2023-04-27T10:43:36.127Z,102116.44
2023-04-27T10:46:13.231Z,102119.94
2023-04-27T10:48:43.578Z,102115.53
2023-04-27T10:51:17.453Z,102113.75
2023-04-27T10:53:46.854Z,102112.88
2023-04-27T10:56:15.512Z,102115.56
2023-04-27T10:58:49.340Z,102112.91
2023-04-27T11:01:26.990Z,102113.81
2023-04-27T11:03:59.410Z,102111.19
2023-04-27T11:06:30.503Z,102110.31
2023-04-27T11:08:58.994Z,102114.72
2023-04-27T11:11:27.821Z,102112.94
2023-04-27T11:13:58.114Z,102109.41
2023-04-27T11:16:26.847Z,102111.16
2023-04-27T11:18:57.922Z,102106.75
2023-04-27T11:21:28.614Z,102119.13
2023-04-27T11:23:58.081Z,102115.56
2023-04-27T11:26:27.419Z,102114.72
2023-04-27T11:29:05.445Z,102112.06
2023-04-27T11:31:47.679Z,102117.34
2023-04-27T11:34:22.581Z,102112.94
2023-04-27T11:39:37.085Z,102115.59
2023-04-27T11:42:24.960Z,102115.59
2023-04-27T11:45:00.256Z,102108.53
2023-04-27T11:47:30.833Z,102116.47
2023-04-27T11:50:02.353Z,102114.69
2023-04-27T11:52:32.161Z,102105.00
2023-04-27T11:55:03.378Z,102113.81
2023-04-27T11:57:33.630Z,102115.56
2023-04-27T12:00:10.901Z,102119.09
2023-04-27T12:02:44.299Z,102118.25
2023-04-27T12:05:13.952Z,102117.34
2023-04-27T12:07:43.751Z,102108.50
2023-04-27T12:10:13.275Z,102109.34
2023-04-27T12:12:42.192Z,102118.13
2023-04-27T12:15:13.054Z,102108.25
2023-04-27T12:17:41.935Z,102110.72
2023-04-27T12:20:12.271Z,102111.41
2023-04-27T12:22:40.737Z,102112.00
2023-04-27T12:25:09.971Z,102111.63
2023-04-27T12:27:38.386Z,102111.34
2023-04-27T12:30:08.846Z,102113.34
2023-04-27T12:32:38.641Z,102100.44
2023-04-27T12:35:08.570Z,102107.84
2023-04-27T12:37:37.114Z,102108.94
2023-04-27T12:40:07.603Z,102104.63
2023-04-27T12:42:36.153Z,102107.31
2023-04-27T12:45:05.208Z,102105.53
2023-04-27T12:47:53.863Z,102105.63
2023-04-27T12:50:25.213Z,102103.88
2023-04-27T12:52:53.720Z,102104.84
2023-04-27T12:55:32.162Z,102104.91
2023-04-27T12:58:02.475Z,102107.59
2023-04-27T13:00:31.403Z,102105.88
2023-04-27T13:02:59.884Z,102109.41
2023-04-27T13:05:31.782Z,102102.38
2023-04-27T13:08:03.159Z,102102.38
2023-04-27T13:10:32.031Z,102096.19
2023-04-27T13:13:01.355Z,102099.72
2023-04-27T13:15:29.923Z,102097.03
2023-04-27T13:17:59.267Z,102096.13
2023-04-27T13:20:29.536Z,102094.34
2023-04-27T13:22:58.510Z,102092.53
2023-04-27T13:25:29.670Z,102092.41
2023-04-27T13:27:58.217Z,102093.84
2023-04-27T13:30:26.871Z,102093.53
2023-04-27T13:33:01.833Z,102082.41
2023-04-27T13:35:37.168Z,102085.84
2023-04-27T13:38:05.721Z,102086.88
2023-04-27T13:40:34.831Z,102079.94
2023-04-27T13:43:03.186Z,102082.03
2023-04-27T13:45:32.414Z,102075.97
2023-04-27T13:48:00.913Z,102085.72
2023-04-27T13:50:29.405Z,102081.09
2023-04-27T13:52:59.381Z,102080.78
2023-04-27T13:55:28.582Z,102081.31
2023-04-27T13:57:57.474Z,102073.25
2023-04-27T14:00:28.770Z,102068.00
2023-04-27T14:02:58.173Z,102069.22
2023-04-27T14:05:26.801Z,102070.84
2023-04-27T14:07:55.310Z,102068.09
2023-04-27T14:10:26.263Z,102060.97
2023-04-27T14:12:55.126Z,102051.88
2023-04-27T14:15:24.074Z,102062.34
2023-04-27T14:17:52.784Z,102053.25
2023-04-27T14:20:28.352Z,102056.00
2023-04-27T14:22:58.341Z,102045.81
2023-04-27T14:25:32.828Z,102050.34
2023-04-27T14:28:02.154Z,102055.41
2023-04-27T14:30:30.739Z,102050.81
2023-04-27T14:32:59.152Z,102049.56
2023-04-27T14:35:28.757Z,102044.97
2023-04-27T14:38:02.184Z,102050.31
2023-04-27T14:40:32.850Z,102048.00
2023-04-27T14:43:01.676Z,102045.59
2023-04-27T14:45:36.991Z,102050.25
2023-04-27T14:48:12.598Z,102046.75
2023-04-27T14:50:41.079Z,102044.63
2023-04-27T14:53:09.538Z,102043.50
2023-04-27T14:55:41.156Z,102039.44
2023-04-27T14:58:09.515Z,102040.47
2023-04-27T15:00:38.251Z,102049.00
2023-04-27T15:03:06.931Z,102043.59
2023-04-27T15:05:35.570Z,102053.91
2023-04-27T15:08:04.526Z,102043.75
2023-04-27T15:10:32.854Z,102042.94
2023-04-27T15:13:03.854Z,102051.56
2023-04-27T15:15:32.486Z,102051.66
2023-04-27T15:18:01.464Z,102050.91
2023-04-27T15:20:30.003Z,102051.13
2023-04-27T15:22:59.302Z,102046.84
2023-04-27T15:25:27.918Z,102047.59
2023-04-27T15:27:56.877Z,102048.53
2023-04-27T15:30:27.786Z,102044.16
2023-04-27T15:32:56.361Z,102046.00
2023-04-27T15:35:25.083Z,102043.41
2023-04-27T15:37:53.498Z,102033.06
2023-04-27T15:40:22.361Z,102030.13
2023-04-27T15:43:03.081Z,102028.19
2023-04-27T15:45:33.465Z,102023.50
2023-04-27T15:48:02.793Z,102016.03
2023-04-27T15:50:31.392Z,102023.63
2023-04-27T15:52:59.862Z,102021.31
2023-04-27T15:55:28.636Z,102013.56
2023-04-27T15:57:59.084Z,102010.28
2023-04-27T16:00:28.083Z,102014.03
2023-04-27T16:02:59.062Z,102021.31
2023-04-27T16:05:28.771Z,102017.91
2023-04-27T16:08:00.292Z,102015.38
2023-04-27T16:10:28.885Z,102006.66
2023-04-27T16:13:06.305Z,101995.28
2023-04-27T16:15:35.458Z,102002.38
2023-04-27T16:18:05.733Z,101990.13
2023-04-27T16:20:36.512Z,101985.75
2023-04-27T16:23:05.510Z,101983.16
2023-04-27T16:25:36.796Z,101988.50
2023-04-27T16:28:05.467Z,101989.41
2023-04-27T16:30:33.895Z,101986.81
2023-04-27T16:33:02.294Z,101992.16
2023-04-27T16:35:33.603Z,101984.25
2023-04-27T16:38:02.226Z,101981.63
2023-04-27T16:40:30.712Z,101982.50
2023-04-27T16:42:59.203Z,101978.13
2023-04-27T16:45:28.891Z,101974.63
2023-04-27T16:47:59.661Z,101972.84
2023-04-27T16:50:31.562Z,101972.88
2023-04-27T16:53:07.351Z,101973.72
2023-04-27T16:55:36.027Z,101968.44
2023-04-27T16:58:04.454Z,101966.66
2023-04-27T17:00:33.404Z,101971.94
2023-04-27T17:03:01.904Z,101973.69
2023-04-27T17:05:30.603Z,101970.16
2023-04-27T17:07:59.105Z,101973.66
2023-04-27T17:10:29.335Z,101974.50
2023-04-27T17:12:58.366Z,101965.69
2023-04-27T17:15:28.850Z,101963.88
2023-04-27T17:17:57.898Z,101963.84
2023-04-27T17:20:26.852Z,101960.28
2023-04-27T17:22:55.237Z,101966.31
2023-04-27T17:25:23.927Z,101966.28
2023-04-27T17:27:53.889Z,101963.59
2023-04-27T17:30:24.110Z,101967.91
2023-04-27T17:32:53.088Z,101970.44
2023-04-27T17:35:21.774Z,101972.13
2023-04-27T17:37:50.201Z,101972.97
2023-04-27T17:40:21.263Z,101979.03
2023-04-27T17:42:49.956Z,101970.13
2023-04-27T17:45:20.241Z,101959.47
2023-04-27T17:47:48.690Z,101962.88
2023-04-27T17:50:17.486Z,101957.44
2023-04-27T17:52:47.527Z,101964.31
2023-04-27T17:55:15.879Z,101958.97
2023-04-27T17:57:44.267Z,101951.84
2023-04-27T18:00:14.968Z,101956.09
2023-04-27T18:02:45.425Z,101948.13
2023-04-27T18:05:13.919Z,101949.78
2023-04-27T18:07:42.544Z,101940.03
2023-04-27T18:10:11.434Z,101935.63
2023-04-27T18:12:40.022Z,101933.81
2023-04-27T18:15:10.085Z,101931.97
2023-04-27T18:17:38.734Z,101935.38
2023-04-27T18:20:10.784Z,101930.03
2023-04-27T18:22:40.160Z,101919.41
2023-04-27T18:25:10.977Z,101929.78
2023-04-27T18:27:39.410Z,101929.66
2023-04-27T18:30:09.487Z,101926.06
2023-04-27T18:32:38.207Z,101932.88
2023-04-27T18:35:10.308Z,101937.13
2023-04-27T18:37:38.639Z,101936.97
2023-04-27T18:40:09.177Z,101939.53
2023-04-27T18:42:37.639Z,101935.06
2023-04-27T18:45:07.919Z,101932.34
2023-04-27T18:47:36.606Z,101935.72
2023-04-27T18:50:05.876Z,101935.66
2023-04-27T18:52:35.696Z,101939.03
2023-04-27T18:55:04.907Z,101949.44
2023-04-27T18:57:33.312Z,101948.41
2023-04-27T19:00:01.646Z,101951.81
2023-04-27T19:02:30.090Z,101956.94
2023-04-27T19:05:10.894Z,101958.56
2023-04-27T19:07:41.742Z,101946.19
2023-04-27T19:10:12.122Z,101961.84
2023-04-27T19:12:40.504Z,101958.28
2023-04-27T19:15:09.682Z,101953.78
2023-04-27T19:17:38.304Z,101950.19
2023-04-27T19:20:09.297Z,101946.63
2023-04-27T19:22:37.984Z,101940.41
2023-04-27T19:25:09.685Z,101943.81
2023-04-27T19:27:38.328Z,101944.59
2023-04-27T19:30:08.754Z,101948.03
2023-04-27T19:32:37.413Z,101941.00
2023-04-27T19:35:08.551Z,101945.31
2023-04-27T19:37:40.380Z,101946.09
2023-04-27T19:40:12.237Z,101946.09
2023-04-27T19:42:40.701Z,101951.28
2023-04-27T19:45:10.844Z,101956.50
2023-04-27T19:47:39.244Z,101947.75
2023-04-27T19:50:09.169Z,101951.16
2023-04-27T19:52:37.695Z,101943.25
2023-04-27T19:55:07.209Z,101940.56
2023-04-27T19:57:37.005Z,101943.09
2023-04-27T20:00:11.759Z,101937.00
2023-04-27T20:02:40.508Z,101936.06
2023-04-27T20:05:10.738Z,101935.09
2023-04-27T20:07:39.307Z,101934.19
2023-04-27T20:10:08.851Z,101925.41
2023-04-27T20:12:54.627Z,101924.44
2023-04-27T20:15:25.266Z,101919.03
2023-04-27T20:17:54.246Z,101923.41
2023-04-27T20:20:22.938Z,101925.94
2023-04-27T20:22:51.462Z,101921.50
2023-04-27T20:25:23.205Z,101918.78
2023-04-27T20:27:53.561Z,101925.72
2023-04-27T20:30:22.576Z,101917.75
2023-04-27T20:32:51.521Z,101916.84
2023-04-27T20:35:20.634Z,101915.03
2023-04-27T20:37:48.992Z,101907.97
2023-04-27T20:40:18.387Z,101916.56
2023-04-27T20:42:49.550Z,101910.41
2023-04-27T20:45:20.511Z,101908.56
2023-04-27T20:47:49.021Z,101903.25
2023-04-27T20:50:18.745Z,101901.47
2023-04-27T20:52:47.612Z,101909.28
2023-04-27T20:55:15.970Z,101903.09
2023-04-27T20:57:44.358Z,101897.84
2023-04-27T21:00:15.636Z,101889.97
2023-04-27T21:02:45.664Z,101895.16
2023-04-27T21:05:14.047Z,101895.97
2023-04-27T21:07:42.357Z,101895.09
2023-04-27T21:10:12.860Z,101892.44
2023-04-27T21:12:41.525Z,101898.53
2023-04-27T21:15:11.344Z,101895.88
2023-04-27T21:17:39.877Z,101894.06
2023-04-27T21:20:12.434Z,101889.69
2023-04-27T21:22:41.021Z,101881.75
2023-04-27T21:25:12.218Z,101875.63
2023-04-27T21:27:40.874Z,101872.09
2023-04-27T21:30:11.268Z,101866.78
2023-04-27T21:32:39.790Z,101861.41
2023-04-27T21:35:11.115Z,101860.44
2023-04-27T21:37:39.486Z,101859.47
2023-04-27T21:40:09.506Z,101861.09
2023-04-27T21:42:37.879Z,101854.00
2023-04-27T21:45:07.607Z,101845.22
2023-04-27T21:47:36.336Z,101857.28
2023-04-27T21:50:05.916Z,101856.28
2023-04-27T21:52:38.708Z,101845.66
2023-04-27T21:55:08.064Z,101844.66
2023-04-27T21:57:37.296Z,101843.59
2023-04-27T22:00:13.498Z,101840.00
2023-04-27T22:02:43.420Z,101842.44
2023-04-27T22:05:12.313Z,101838.81
2023-04-27T22:07:48.163Z,101843.06
2023-04-27T22:10:16.664Z,101845.50
2023-04-27T22:12:46.915Z,101843.59
2023-04-27T22:15:15.653Z,101840.78
2023-04-27T22:17:44.183Z,101827.50
2023-04-27T22:20:14.305Z,101829.97
2023-04-27T22:22:44.764Z,101821.94
2023-04-27T22:25:13.881Z,101820.00
2023-04-27T22:27:45.440Z,101817.25
2023-04-27T22:30:16.361Z,101817.94
2023-04-27T22:32:44.950Z,101812.59
2023-04-27T22:35:25.814Z,101805.38
2023-04-27T22:37:58.139Z,101805.22
2023-04-27T22:40:27.076Z,101796.34
2023-04-27T22:42:56.359Z,101793.63
2023-04-27T22:45:25.617Z,101796.09
2023-04-27T22:47:54.168Z,101788.09
2023-04-27T22:50:25.394Z,101788.84
2023-04-27T22:52:54.028Z,101781.75
2023-04-27T22:55:23.923Z,101786.88
2023-04-27T22:57:53.972Z,101779.81
2023-04-27T23:00:23.370Z,101790.19
2023-04-27T23:02:52.109Z,101790.91
2023-04-27T23:05:21.116Z,101777.84
2023-04-27T23:07:51.920Z,101786.47
2023-04-27T23:10:21.337Z,101771.59
2023-04-27T23:12:55.301Z,101774.19
2023-04-27T23:15:24.660Z,101770.78
2023-04-27T23:17:53.964Z,101774.31
2023-04-27T23:22:54.375Z,101773.72
2023-04-27T23:25:24.907Z,101770.41
2023-04-27T23:27:58.173Z,101768.81
2023-04-27T23:30:26.693Z,101772.47
2023-04-27T23:32:55.332Z,101758.66
2023-04-27T23:35:24.050Z,101747.38
2023-04-27T23:37:53.167Z,101758.69
2023-04-27T23:40:21.895Z,101757.03
2023-04-27T23:42:51.820Z,101751.75
2023-04-27T23:45:21.924Z,101756.03
2023-04-27T23:47:51.568Z,101741.19
2023-04-27T23:50:20.358Z,101738.50
2023-04-27T23:52:49.706Z,101731.38
2023-04-27T23:55:18.807Z,101739.91
2023-04-27T23:57:47.431Z,101738.91
